sensor_id;sensor_type;location;lat;lon;timestamp;temperature;humidity
59098;DHT22;44883;52.760;6.610;2022-11-02T00:01:48;12.70;99.90
59098;DHT22;44883;52.760;6.610;2022-11-02T00:04:14;12.70;99.90
59098;DHT22;44883;52.760;6.610;2022-11-02T00:06:39;12.60;99.90
59098;DHT22;44883;52.760;6.610;2022-11-02T00:09:05;12.60;99.90
59098;DHT22;44883;52.760;6.610;2022-11-02T00:11:31;12.50;99.90
59098;DHT22;44883;52.760;6.610;2022-11-02T00:13:56;12.50;99.90
59098;DHT22;44883;52.760;6.610;2022-11-02T00:16:22;12.50;99.90
59098;DHT22;44883;52.760;6.610;2022-11-02T00:18:49;12.50;99.90
59098;DHT22;44883;52.760;6.610;2022-11-02T00:21:15;12.50;99.90
59098;DHT22;44883;52.760;6.610;2022-11-02T00:23:42;12.50;99.90
59098;DHT22;44883;52.760;6.610;2022-11-02T00:26:08;12.40;99.90
59098;DHT22;44883;52.760;6.610;2022-11-02T00:28:33;12.40;99.90
59098;DHT22;44883;52.760;6.610;2022-11-02T00:30:59;12.50;99.90
59098;DHT22;44883;52.760;6.610;2022-11-02T00:33:25;12.40;99.90
59098;DHT22;44883;52.760;6.610;2022-11-02T00:35:51;12.40;99.90
59098;DHT22;44883;52.760;6.610;2022-11-02T00:38:17;12.50;99.90
59098;DHT22;44883;52.760;6.610;2022-11-02T00:40:42;12.40;99.90
59098;DHT22;44883;52.760;6.610;2022-11-02T00:43:08;12.40;99.90
59098;DHT22;44883;52.760;6.610;2022-11-02T00:45:33;12.40;99.90
59098;DHT22;44883;52.760;6.610;2022-11-02T00:47:59;12.30;99.90
59098;DHT22;44883;52.760;6.610;2022-11-02T00:50:24;12.30;99.90
59098;DHT22;44883;52.760;6.610;2022-11-02T00:52:50;12.30;99.90
59098;DHT22;44883;52.760;6.610;2022-11-02T00:55:15;12.30;99.90
59098;DHT22;44883;52.760;6.610;2022-11-02T00:57:42;12.30;99.90
59098;DHT22;44883;52.760;6.610;2022-11-02T01:00:09;12.20;99.90
59098;DHT22;44883;52.760;6.610;2022-11-02T01:02:35;12.20;99.90
59098;DHT22;44883;52.760;6.610;2022-11-02T01:05:00;12.20;99.90
59098;DHT22;44883;52.760;6.610;2022-11-02T01:07:27;12.20;99.90
59098;DHT22;44883;52.760;6.610;2022-11-02T01:09:52;12.20;99.90
59098;DHT22;44883;52.760;6.610;2022-11-02T01:12:18;12.20;99.90
59098;DHT22;44883;52.760;6.610;2022-11-02T01:14:46;12.20;99.90
59098;DHT22;44883;52.760;6.610;2022-11-02T01:17:12;12.20;99.90
59098;DHT22;44883;52.760;6.610;2022-11-02T01:19:39;12.20;99.90
59098;DHT22;44883;52.760;6.610;2022-11-02T01:22:04;12.20;99.90
59098;DHT22;44883;52.760;6.610;2022-11-02T01:24:30;12.20;99.90
59098;DHT22;44883;52.760;6.610;2022-11-02T01:26:55;12.20;99.90
59098;DHT22;44883;52.760;6.610;2022-11-02T01:29:21;12.10;99.90
59098;DHT22;44883;52.760;6.610;2022-11-02T01:31:46;12.10;99.90
59098;DHT22;44883;52.760;6.610;2022-11-02T01:34:13;12.10;99.90
59098;DHT22;44883;52.760;6.610;2022-11-02T01:36:39;12.10;99.90
59098;DHT22;44883;52.760;6.610;2022-11-02T01:39:04;12.00;99.90
59098;DHT22;44883;52.760;6.610;2022-11-02T01:41:30;12.10;99.90
59098;DHT22;44883;52.760;6.610;2022-11-02T01:43:56;12.00;99.90
59098;DHT22;44883;52.760;6.610;2022-11-02T01:49:02;12.00;99.90
59098;DHT22;44883;52.760;6.610;2022-11-02T01:51:30;12.00;99.90
59098;DHT22;44883;52.760;6.610;2022-11-02T01:53:58;12.00;99.90
59098;DHT22;44883;52.760;6.610;2022-11-02T01:56:25;12.10;99.90
59098;DHT22;44883;52.760;6.610;2022-11-02T01:58:56;12.10;99.90
59098;DHT22;44883;52.760;6.610;2022-11-02T02:01:22;12.10;99.90
59098;DHT22;44883;52.760;6.610;2022-11-02T02:03:48;12.20;99.90
59098;DHT22;44883;52.760;6.610;2022-11-02T02:06:15;12.20;99.90
59098;DHT22;44883;52.760;6.610;2022-11-02T02:08:43;12.20;99.90
59098;DHT22;44883;52.760;6.610;2022-11-02T02:13:52;12.10;99.90
59098;DHT22;44883;52.760;6.610;2022-11-02T02:16:20;12.20;99.90
59098;DHT22;44883;52.760;6.610;2022-11-02T02:18:49;12.20;99.90
59098;DHT22;44883;52.760;6.610;2022-11-02T02:26:38;12.30;99.90
59098;DHT22;44883;52.760;6.610;2022-11-02T02:29:08;12.30;99.90
59098;DHT22;44883;52.760;6.610;2022-11-02T02:34:21;12.30;99.90
59098;DHT22;44883;52.760;6.610;2022-11-02T02:36:49;12.20;99.90
59098;DHT22;44883;52.760;6.610;2022-11-02T02:39:50;12.20;99.90
59098;DHT22;44883;52.760;6.610;2022-11-02T02:42:17;12.10;99.90
59098;DHT22;44883;52.760;6.610;2022-11-02T02:44:52;12.10;99.90
59098;DHT22;44883;52.760;6.610;2022-11-02T02:47:20;12.00;99.90
59098;DHT22;44883;52.760;6.610;2022-11-02T02:49:49;12.00;99.90
59098;DHT22;44883;52.760;6.610;2022-11-02T02:52:15;11.90;99.90
59098;DHT22;44883;52.760;6.610;2022-11-02T02:54:42;11.90;99.90
59098;DHT22;44883;52.760;6.610;2022-11-02T02:57:12;11.90;99.90
59098;DHT22;44883;52.760;6.610;2022-11-02T02:59:44;11.90;99.90
59098;DHT22;44883;52.760;6.610;2022-11-02T03:02:12;11.90;99.90
59098;DHT22;44883;52.760;6.610;2022-11-02T03:04:40;11.90;99.90
59098;DHT22;44883;52.760;6.610;2022-11-02T03:07:05;11.90;99.90
59098;DHT22;44883;52.760;6.610;2022-11-02T03:09:43;11.90;99.90
59098;DHT22;44883;52.760;6.610;2022-11-02T03:17:31;11.70;99.90
59098;DHT22;44883;52.760;6.610;2022-11-02T03:22:33;11.60;99.90
59098;DHT22;44883;52.760;6.610;2022-11-02T03:25:05;11.50;99.90
59098;DHT22;44883;52.760;6.610;2022-11-02T03:30:16;11.40;99.90
59098;DHT22;44883;52.760;6.610;2022-11-02T03:35:14;11.30;99.90
59098;DHT22;44883;52.760;6.610;2022-11-02T03:37:44;11.20;99.90
59098;DHT22;44883;52.760;6.610;2022-11-02T03:40:25;11.20;99.90
59098;DHT22;44883;52.760;6.610;2022-11-02T03:42:52;11.10;99.90
59098;DHT22;44883;52.760;6.610;2022-11-02T03:45:19;11.10;99.90
59098;DHT22;44883;52.760;6.610;2022-11-02T03:47:46;11.10;99.90
59098;DHT22;44883;52.760;6.610;2022-11-02T03:50:14;11.10;99.90
59098;DHT22;44883;52.760;6.610;2022-11-02T03:52:43;11.10;99.90
59098;DHT22;44883;52.760;6.610;2022-11-02T03:55:14;11.00;99.90
59098;DHT22;44883;52.760;6.610;2022-11-02T03:57:43;11.10;99.90
59098;DHT22;44883;52.760;6.610;2022-11-02T04:00:13;11.00;99.90
59098;DHT22;44883;52.760;6.610;2022-11-02T04:02:40;11.00;99.90
59098;DHT22;44883;52.760;6.610;2022-11-02T04:05:06;10.90;99.90
59098;DHT22;44883;52.760;6.610;2022-11-02T04:07:32;11.00;99.90
59098;DHT22;44883;52.760;6.610;2022-11-02T04:10:19;10.90;99.90
59098;DHT22;44883;52.760;6.610;2022-11-02T04:12:44;10.90;99.90
59098;DHT22;44883;52.760;6.610;2022-11-02T04:15:28;10.90;99.90
59098;DHT22;44883;52.760;6.610;2022-11-02T04:17:54;10.90;99.90
59098;DHT22;44883;52.760;6.610;2022-11-02T04:20:38;10.90;99.90
59098;DHT22;44883;52.760;6.610;2022-11-02T04:23:04;10.90;99.90
59098;DHT22;44883;52.760;6.610;2022-11-02T04:25:54;10.80;99.90
59098;DHT22;44883;52.760;6.610;2022-11-02T04:28:19;10.90;99.90
59098;DHT22;44883;52.760;6.610;2022-11-02T04:30:45;10.90;99.90
59098;DHT22;44883;52.760;6.610;2022-11-02T04:33:11;10.90;99.90
59098;DHT22;44883;52.760;6.610;2022-11-02T04:35:55;10.90;99.90
59098;DHT22;44883;52.760;6.610;2022-11-02T04:38:23;10.90;99.90
59098;DHT22;44883;52.760;6.610;2022-11-02T04:41:07;11.00;99.90
59098;DHT22;44883;52.760;6.610;2022-11-02T04:43:52;11.00;99.90
59098;DHT22;44883;52.760;6.610;2022-11-02T04:46:18;11.00;99.90
59098;DHT22;44883;52.760;6.610;2022-11-02T04:48:43;11.10;99.90
59098;DHT22;44883;52.760;6.610;2022-11-02T04:51:09;11.10;99.90
59098;DHT22;44883;52.760;6.610;2022-11-02T04:53:34;11.10;99.90
59098;DHT22;44883;52.760;6.610;2022-11-02T04:56:00;11.10;99.90
59098;DHT22;44883;52.760;6.610;2022-11-02T04:58:25;11.10;99.90
59098;DHT22;44883;52.760;6.610;2022-11-02T05:00:51;11.10;99.90
59098;DHT22;44883;52.760;6.610;2022-11-02T05:03:16;11.10;99.90
59098;DHT22;44883;52.760;6.610;2022-11-02T05:05:42;11.10;99.90
59098;DHT22;44883;52.760;6.610;2022-11-02T05:08:08;11.10;99.90
59098;DHT22;44883;52.760;6.610;2022-11-02T05:10:33;11.10;99.90
59098;DHT22;44883;52.760;6.610;2022-11-02T05:12:59;11.10;99.90
59098;DHT22;44883;52.760;6.610;2022-11-02T05:15:24;11.10;99.90
59098;DHT22;44883;52.760;6.610;2022-11-02T05:17:50;11.10;99.90
59098;DHT22;44883;52.760;6.610;2022-11-02T05:20:15;11.00;99.90
59098;DHT22;44883;52.760;6.610;2022-11-02T05:22:41;11.10;99.90
59098;DHT22;44883;52.760;6.610;2022-11-02T05:25:10;11.10;99.90
59098;DHT22;44883;52.760;6.610;2022-11-02T05:27:36;11.10;99.90
59098;DHT22;44883;52.760;6.610;2022-11-02T05:30:02;11.10;99.90
59098;DHT22;44883;52.760;6.610;2022-11-02T05:32:28;11.20;99.90
59098;DHT22;44883;52.760;6.610;2022-11-02T05:34:53;11.20;99.90
59098;DHT22;44883;52.760;6.610;2022-11-02T05:37:19;11.20;99.90
59098;DHT22;44883;52.760;6.610;2022-11-02T05:39:44;11.20;99.90
59098;DHT22;44883;52.760;6.610;2022-11-02T05:42:10;11.20;99.90
59098;DHT22;44883;52.760;6.610;2022-11-02T05:44:35;11.10;99.90
59098;DHT22;44883;52.760;6.610;2022-11-02T05:47:01;11.10;99.90
59098;DHT22;44883;52.760;6.610;2022-11-02T05:49:27;11.10;99.90
59098;DHT22;44883;52.760;6.610;2022-11-02T05:51:53;11.10;99.90
59098;DHT22;44883;52.760;6.610;2022-11-02T05:54:18;11.00;99.90
59098;DHT22;44883;52.760;6.610;2022-11-02T05:56:44;11.10;99.90
59098;DHT22;44883;52.760;6.610;2022-11-02T05:59:09;11.10;99.90
59098;DHT22;44883;52.760;6.610;2022-11-02T06:01:35;11.10;99.90
59098;DHT22;44883;52.760;6.610;2022-11-02T06:04:00;11.10;99.90
59098;DHT22;44883;52.760;6.610;2022-11-02T06:06:26;11.00;99.90
59098;DHT22;44883;52.760;6.610;2022-11-02T06:08:51;11.00;99.90
59098;DHT22;44883;52.760;6.610;2022-11-02T06:11:17;11.00;99.90
59098;DHT22;44883;52.760;6.610;2022-11-02T06:13:43;11.00;99.90
59098;DHT22;44883;52.760;6.610;2022-11-02T06:16:09;11.00;99.90
59098;DHT22;44883;52.760;6.610;2022-11-02T06:18:35;11.00;99.90
59098;DHT22;44883;52.760;6.610;2022-11-02T06:21:00;11.00;99.90
59098;DHT22;44883;52.760;6.610;2022-11-02T06:23:26;11.00;99.90
59098;DHT22;44883;52.760;6.610;2022-11-02T06:25:52;11.00;99.90
59098;DHT22;44883;52.760;6.610;2022-11-02T06:28:18;11.00;99.90
59098;DHT22;44883;52.760;6.610;2022-11-02T06:30:44;11.00;99.90
59098;DHT22;44883;52.760;6.610;2022-11-02T06:33:09;11.00;99.90
59098;DHT22;44883;52.760;6.610;2022-11-02T06:35:35;11.10;99.90
59098;DHT22;44883;52.760;6.610;2022-11-02T06:38:00;11.10;99.90
59098;DHT22;44883;52.760;6.610;2022-11-02T06:40:25;11.00;99.90
59098;DHT22;44883;52.760;6.610;2022-11-02T06:42:55;11.10;99.90
59098;DHT22;44883;52.760;6.610;2022-11-02T06:45:21;11.10;99.90
59098;DHT22;44883;52.760;6.610;2022-11-02T06:47:47;11.10;99.90
59098;DHT22;44883;52.760;6.610;2022-11-02T06:50:12;11.10;99.90
59098;DHT22;44883;52.760;6.610;2022-11-02T06:52:44;11.10;99.90
59098;DHT22;44883;52.760;6.610;2022-11-02T06:55:11;11.10;99.90
59098;DHT22;44883;52.760;6.610;2022-11-02T06:57:37;11.10;99.90
59098;DHT22;44883;52.760;6.610;2022-11-02T07:00:03;11.00;99.90
59098;DHT22;44883;52.760;6.610;2022-11-02T07:02:29;11.10;99.90
59098;DHT22;44883;52.760;6.610;2022-11-02T07:04:55;11.00;99.90
59098;DHT22;44883;52.760;6.610;2022-11-02T07:07:21;11.00;99.90
59098;DHT22;44883;52.760;6.610;2022-11-02T07:09:46;11.10;99.90
59098;DHT22;44883;52.760;6.610;2022-11-02T07:12:12;11.10;99.90
59098;DHT22;44883;52.760;6.610;2022-11-02T07:14:37;11.10;99.90
59098;DHT22;44883;52.760;6.610;2022-11-02T07:17:03;11.00;99.90
59098;DHT22;44883;52.760;6.610;2022-11-02T07:19:28;11.00;99.90
59098;DHT22;44883;52.760;6.610;2022-11-02T07:21:54;11.30;99.90
59098;DHT22;44883;52.760;6.610;2022-11-02T07:24:20;11.80;99.90
59098;DHT22;44883;52.760;6.610;2022-11-02T07:26:48;12.50;99.90
59098;DHT22;44883;52.760;6.610;2022-11-02T07:29:16;12.90;99.90
59098;DHT22;44883;52.760;6.610;2022-11-02T07:31:42;12.90;99.90
59098;DHT22;44883;52.760;6.610;2022-11-02T07:34:08;12.70;99.90
59098;DHT22;44883;52.760;6.610;2022-11-02T07:36:33;12.50;99.90
59098;DHT22;44883;52.760;6.610;2022-11-02T07:38:58;12.30;99.90
59098;DHT22;44883;52.760;6.610;2022-11-02T07:41:24;12.20;99.90
59098;DHT22;44883;52.760;6.610;2022-11-02T07:43:49;12.20;99.90
59098;DHT22;44883;52.760;6.610;2022-11-02T07:46:15;12.10;99.90
59098;DHT22;44883;52.760;6.610;2022-11-02T07:48:40;12.50;99.90
59098;DHT22;44883;52.760;6.610;2022-11-02T07:51:06;12.90;99.90
59098;DHT22;44883;52.760;6.610;2022-11-02T07:53:32;12.90;99.90
59098;DHT22;44883;52.760;6.610;2022-11-02T07:55:59;13.10;99.90
59098;DHT22;44883;52.760;6.610;2022-11-02T07:58:24;13.00;99.90
59098;DHT22;44883;52.760;6.610;2022-11-02T08:00:51;12.90;99.90
59098;DHT22;44883;52.760;6.610;2022-11-02T08:03:17;12.80;99.90
59098;DHT22;44883;52.760;6.610;2022-11-02T08:05:42;12.60;99.90
59098;DHT22;44883;52.760;6.610;2022-11-02T08:08:11;12.50;99.90
59098;DHT22;44883;52.760;6.610;2022-11-02T08:10:38;12.50;99.90
59098;DHT22;44883;52.760;6.610;2022-11-02T08:13:03;12.40;99.90
59098;DHT22;44883;52.760;6.610;2022-11-02T08:15:29;12.40;99.90
59098;DHT22;44883;52.760;6.610;2022-11-02T08:17:58;12.40;99.90
59098;DHT22;44883;52.760;6.610;2022-11-02T08:20:24;12.40;99.90
59098;DHT22;44883;52.760;6.610;2022-11-02T08:22:49;12.50;99.90
59098;DHT22;44883;52.760;6.610;2022-11-02T08:25:15;12.70;99.90
59098;DHT22;44883;52.760;6.610;2022-11-02T08:27:40;12.90;99.90
59098;DHT22;44883;52.760;6.610;2022-11-02T08:30:06;13.00;99.90
59098;DHT22;44883;52.760;6.610;2022-11-02T08:32:32;13.10;99.90
59098;DHT22;44883;52.760;6.610;2022-11-02T08:34:57;13.10;99.90
59098;DHT22;44883;52.760;6.610;2022-11-02T08:37:23;12.90;99.90
59098;DHT22;44883;52.760;6.610;2022-11-02T08:39:48;12.80;99.90
59098;DHT22;44883;52.760;6.610;2022-11-02T08:42:14;12.80;99.90
59098;DHT22;44883;52.760;6.610;2022-11-02T08:44:39;12.90;99.90
59098;DHT22;44883;52.760;6.610;2022-11-02T08:47:05;12.90;99.90
59098;DHT22;44883;52.760;6.610;2022-11-02T08:49:30;12.90;99.90
59098;DHT22;44883;52.760;6.610;2022-11-02T08:51:56;12.90;99.90
59098;DHT22;44883;52.760;6.610;2022-11-02T08:54:21;12.90;99.90
59098;DHT22;44883;52.760;6.610;2022-11-02T08:56:47;13.00;99.90
59098;DHT22;44883;52.760;6.610;2022-11-02T08:59:12;13.10;99.90
59098;DHT22;44883;52.760;6.610;2022-11-02T09:01:38;13.10;99.90
59098;DHT22;44883;52.760;6.610;2022-11-02T09:04:03;13.10;99.90
59098;DHT22;44883;52.760;6.610;2022-11-02T09:06:29;13.00;99.90
59098;DHT22;44883;52.760;6.610;2022-11-02T09:08:54;13.00;99.90
59098;DHT22;44883;52.760;6.610;2022-11-02T09:11:20;13.00;99.90
59098;DHT22;44883;52.760;6.610;2022-11-02T09:13:45;13.00;99.90
59098;DHT22;44883;52.760;6.610;2022-11-02T09:16:11;13.00;99.90
59098;DHT22;44883;52.760;6.610;2022-11-02T09:18:36;13.10;99.90
59098;DHT22;44883;52.760;6.610;2022-11-02T09:21:02;13.20;99.90
59098;DHT22;44883;52.760;6.610;2022-11-02T09:23:28;13.20;99.90
59098;DHT22;44883;52.760;6.610;2022-11-02T09:25:54;13.20;99.90
59098;DHT22;44883;52.760;6.610;2022-11-02T09:28:20;13.20;99.90
59098;DHT22;44883;52.760;6.610;2022-11-02T09:30:45;13.30;99.90
59098;DHT22;44883;52.760;6.610;2022-11-02T09:33:11;13.30;99.90
59098;DHT22;44883;52.760;6.610;2022-11-02T09:35:39;13.40;99.90
59098;DHT22;44883;52.760;6.610;2022-11-02T09:38:05;13.50;99.90
59098;DHT22;44883;52.760;6.610;2022-11-02T09:40:34;13.50;99.90
59098;DHT22;44883;52.760;6.610;2022-11-02T09:45:33;13.60;99.90
59098;DHT22;44883;52.760;6.610;2022-11-02T09:48:06;13.70;99.90
59098;DHT22;44883;52.760;6.610;2022-11-02T09:50:38;13.80;99.90
59098;DHT22;44883;52.760;6.610;2022-11-02T09:53:04;13.80;99.90
59098;DHT22;44883;52.760;6.610;2022-11-02T09:55:34;13.80;99.90
59098;DHT22;44883;52.760;6.610;2022-11-02T09:58:04;13.90;99.90
59098;DHT22;44883;52.760;6.610;2022-11-02T10:00:32;14.00;99.90
59098;DHT22;44883;52.760;6.610;2022-11-02T10:08:00;14.00;99.90
59098;DHT22;44883;52.760;6.610;2022-11-02T10:10:38;14.10;99.90
59098;DHT22;44883;52.760;6.610;2022-11-02T10:15:48;14.60;99.90
59098;DHT22;44883;52.760;6.610;2022-11-02T10:18:17;14.70;99.90
59098;DHT22;44883;52.760;6.610;2022-11-02T10:20:44;14.60;99.90
59098;DHT22;44883;52.760;6.610;2022-11-02T10:23:13;14.70;99.90
59098;DHT22;44883;52.760;6.610;2022-11-02T10:25:39;14.80;99.90
59098;DHT22;44883;52.760;6.610;2022-11-02T10:28:09;14.70;99.90
59098;DHT22;44883;52.760;6.610;2022-11-02T10:30:35;14.70;99.90
59098;DHT22;44883;52.760;6.610;2022-11-02T10:33:01;14.50;99.90
59098;DHT22;44883;52.760;6.610;2022-11-02T10:49:09;13.70;99.90
59098;DHT22;44883;52.760;6.610;2022-11-02T10:51:37;13.70;99.90
59098;DHT22;44883;52.760;6.610;2022-11-02T10:54:03;13.60;99.90
59098;DHT22;44883;52.760;6.610;2022-11-02T10:56:35;13.50;99.90
59098;DHT22;44883;52.760;6.610;2022-11-02T10:59:02;13.40;99.90
59098;DHT22;44883;52.760;6.610;2022-11-02T11:01:33;13.40;99.90
59098;DHT22;44883;52.760;6.610;2022-11-02T11:04:07;13.50;99.90
59098;DHT22;44883;52.760;6.610;2022-11-02T11:06:43;13.50;99.90
59098;DHT22;44883;52.760;6.610;2022-11-02T11:09:19;13.60;99.90
59098;DHT22;44883;52.760;6.610;2022-11-02T11:11:52;13.70;99.90
59098;DHT22;44883;52.760;6.610;2022-11-02T11:14:18;13.70;99.90
59098;DHT22;44883;52.760;6.610;2022-11-02T11:16:45;13.80;99.90
59098;DHT22;44883;52.760;6.610;2022-11-02T11:21:43;13.90;99.90
59098;DHT22;44883;52.760;6.610;2022-11-02T11:24:31;13.90;99.90
59098;DHT22;44883;52.760;6.610;2022-11-02T11:27:01;14.00;99.90
59098;DHT22;44883;52.760;6.610;2022-11-02T11:29:29;14.00;99.90
59098;DHT22;44883;52.760;6.610;2022-11-02T11:31:54;14.00;99.90
59098;DHT22;44883;52.760;6.610;2022-11-02T11:34:24;14.00;99.90
59098;DHT22;44883;52.760;6.610;2022-11-02T11:36:50;14.00;99.90
59098;DHT22;44883;52.760;6.610;2022-11-02T11:39:26;14.00;99.90
59098;DHT22;44883;52.760;6.610;2022-11-02T11:41:52;14.00;99.90
59098;DHT22;44883;52.760;6.610;2022-11-02T11:44:18;14.00;99.90
59098;DHT22;44883;52.760;6.610;2022-11-02T11:46:45;13.90;99.90
59098;DHT22;44883;52.760;6.610;2022-11-02T11:49:18;13.90;99.90
59098;DHT22;44883;52.760;6.610;2022-11-02T11:51:46;13.90;99.90
59098;DHT22;44883;52.760;6.610;2022-11-02T11:54:29;13.80;99.90
59098;DHT22;44883;52.760;6.610;2022-11-02T12:02:14;13.60;99.90
59098;DHT22;44883;52.760;6.610;2022-11-02T12:04:42;13.60;99.90
59098;DHT22;44883;52.760;6.610;2022-11-02T12:10:17;13.70;99.90
59098;DHT22;44883;52.760;6.610;2022-11-02T12:26:11;13.80;99.90
59098;DHT22;44883;52.760;6.610;2022-11-02T12:28:54;13.90;99.90
59098;DHT22;44883;52.760;6.610;2022-11-02T12:33:52;13.90;99.90
59098;DHT22;44883;52.760;6.610;2022-11-02T12:36:33;13.90;99.90
59098;DHT22;44883;52.760;6.610;2022-11-02T12:41:42;14.00;99.90
59098;DHT22;44883;52.760;6.610;2022-11-02T12:49:12;13.70;99.90
59098;DHT22;44883;52.760;6.610;2022-11-02T12:51:45;13.60;99.90
59098;DHT22;44883;52.760;6.610;2022-11-02T12:54:15;13.50;99.90
59098;DHT22;44883;52.760;6.610;2022-11-02T12:56:44;13.40;99.90
59098;DHT22;44883;52.760;6.610;2022-11-02T12:59:24;13.40;99.90
59098;DHT22;44883;52.760;6.610;2022-11-02T13:01:56;13.40;99.90
59098;DHT22;44883;52.760;6.610;2022-11-02T13:06:48;13.40;99.90
59098;DHT22;44883;52.760;6.610;2022-11-02T13:11:49;13.50;99.90
59098;DHT22;44883;52.760;6.610;2022-11-02T13:14:18;13.60;99.90
59098;DHT22;44883;52.760;6.610;2022-11-02T13:16:58;13.70;99.90
59098;DHT22;44883;52.760;6.610;2022-11-02T13:20:00;14.30;99.60
59098;DHT22;44883;52.760;6.610;2022-11-02T13:22:19;15.20;97.20
59098;DHT22;44883;52.760;6.610;2022-11-02T13:24:46;15.50;95.30
59098;DHT22;44883;52.760;6.610;2022-11-02T13:27:19;15.60;95.90
59098;DHT22;44883;52.760;6.610;2022-11-02T13:29:47;15.70;95.50
59098;DHT22;44883;52.760;6.610;2022-11-02T13:34:46;15.50;95.30
59098;DHT22;44883;52.760;6.610;2022-11-02T13:37:22;15.30;95.20
59098;DHT22;44883;52.760;6.610;2022-11-02T13:39:52;15.10;96.60
59098;DHT22;44883;52.760;6.610;2022-11-02T13:49:58;14.00;99.00
59098;DHT22;44883;52.760;6.610;2022-11-02T13:52:33;13.80;99.20
59098;DHT22;44883;52.760;6.610;2022-11-02T13:55:01;13.70;99.90
59098;DHT22;44883;52.760;6.610;2022-11-02T13:57:30;13.70;99.90
59098;DHT22;44883;52.760;6.610;2022-11-02T13:59:56;13.70;99.90
59098;DHT22;44883;52.760;6.610;2022-11-02T14:02:22;13.70;99.90
59098;DHT22;44883;52.760;6.610;2022-11-02T14:04:48;13.70;99.90
59098;DHT22;44883;52.760;6.610;2022-11-02T14:07:24;13.70;99.90
59098;DHT22;44883;52.760;6.610;2022-11-02T14:09:55;13.60;99.90
59098;DHT22;44883;52.760;6.610;2022-11-02T14:15:35;13.60;99.90
59098;DHT22;44883;52.760;6.610;2022-11-02T14:30:44;13.30;99.90
59098;DHT22;44883;52.760;6.610;2022-11-02T14:33:35;13.30;99.90
59098;DHT22;44883;52.760;6.610;2022-11-02T14:35:56;13.20;99.90
59098;DHT22;44883;52.760;6.610;2022-11-02T14:38:26;13.20;99.90
59098;DHT22;44883;52.760;6.610;2022-11-02T14:48:42;13.00;99.90
59098;DHT22;44883;52.760;6.610;2022-11-02T14:51:19;13.00;99.90
59098;DHT22;44883;52.760;6.610;2022-11-02T14:53:46;12.90;99.90
59098;DHT22;44883;52.760;6.610;2022-11-02T14:56:13;12.90;99.90
59098;DHT22;44883;52.760;6.610;2022-11-02T14:58:39;12.90;99.90
59098;DHT22;44883;52.760;6.610;2022-11-02T15:01:12;12.80;99.90
59098;DHT22;44883;52.760;6.610;2022-11-02T15:03:38;12.80;99.90
59098;DHT22;44883;52.760;6.610;2022-11-02T15:06:23;12.70;99.90
59098;DHT22;44883;52.760;6.610;2022-11-02T15:08:52;12.70;99.90
59098;DHT22;44883;52.760;6.610;2022-11-02T15:14:27;12.60;99.90
59098;DHT22;44883;52.760;6.610;2022-11-02T15:16:48;12.60;99.90
59098;DHT22;44883;52.760;6.610;2022-11-02T15:22:25;12.50;99.90
59098;DHT22;44883;52.760;6.610;2022-11-02T15:24:44;12.50;99.90
59098;DHT22;44883;52.760;6.610;2022-11-02T15:27:10;12.40;99.90
59098;DHT22;44883;52.760;6.610;2022-11-02T15:29:40;12.40;99.90
59098;DHT22;44883;52.760;6.610;2022-11-02T15:32:10;12.40;99.90
59098;DHT22;44883;52.760;6.610;2022-11-02T15:34:43;12.30;99.90
59098;DHT22;44883;52.760;6.610;2022-11-02T15:37:11;12.30;99.90
59098;DHT22;44883;52.760;6.610;2022-11-02T15:39:46;12.20;99.90
59098;DHT22;44883;52.760;6.610;2022-11-02T15:42:17;12.10;99.90
59098;DHT22;44883;52.760;6.610;2022-11-02T15:55:20;11.90;99.90
59098;DHT22;44883;52.760;6.610;2022-11-02T16:00:31;11.80;99.90
59098;DHT22;44883;52.760;6.610;2022-11-02T16:02:58;11.70;99.90
59098;DHT22;44883;52.760;6.610;2022-11-02T16:05:25;11.70;99.90
59098;DHT22;44883;52.760;6.610;2022-11-02T16:07:55;11.60;99.90
59098;DHT22;44883;52.760;6.610;2022-11-02T16:15:25;11.50;99.90
59098;DHT22;44883;52.760;6.610;2022-11-02T16:17:51;11.50;99.90
59098;DHT22;44883;52.760;6.610;2022-11-02T16:20:19;11.40;99.90
59098;DHT22;44883;52.760;6.610;2022-11-02T16:22:48;11.40;99.90
59098;DHT22;44883;52.760;6.610;2022-11-02T16:25:16;11.40;99.90
59098;DHT22;44883;52.760;6.610;2022-11-02T16:27:43;11.30;99.90
59098;DHT22;44883;52.760;6.610;2022-11-02T16:30:16;11.40;99.90
59098;DHT22;44883;52.760;6.610;2022-11-02T16:32:41;11.30;99.90
59098;DHT22;44883;52.760;6.610;2022-11-02T16:35:09;11.30;99.90
59098;DHT22;44883;52.760;6.610;2022-11-02T16:37:35;11.30;99.90
59098;DHT22;44883;52.760;6.610;2022-11-02T16:40:01;11.30;99.90
59098;DHT22;44883;52.760;6.610;2022-11-02T16:42:26;11.30;99.90
59098;DHT22;44883;52.760;6.610;2022-11-02T16:44:56;11.30;99.90
59098;DHT22;44883;52.760;6.610;2022-11-02T16:47:26;11.20;99.90
59098;DHT22;44883;52.760;6.610;2022-11-02T16:52:35;11.20;99.90
59098;DHT22;44883;52.760;6.610;2022-11-02T16:55:01;11.20;99.90
59098;DHT22;44883;52.760;6.610;2022-11-02T16:57:33;11.20;99.90
59098;DHT22;44883;52.760;6.610;2022-11-02T17:00:02;11.20;99.90
59098;DHT22;44883;52.760;6.610;2022-11-02T17:02:30;11.20;99.90
59098;DHT22;44883;52.760;6.610;2022-11-02T17:04:56;11.10;99.90
59098;DHT22;44883;52.760;6.610;2022-11-02T17:07:23;11.10;99.90
59098;DHT22;44883;52.760;6.610;2022-11-02T17:09:51;11.10;99.90
59098;DHT22;44883;52.760;6.610;2022-11-02T17:12:17;11.10;99.90
59098;DHT22;44883;52.760;6.610;2022-11-02T17:14:45;11.10;99.90
59098;DHT22;44883;52.760;6.610;2022-11-02T17:19:55;11.10;99.90
59098;DHT22;44883;52.760;6.610;2022-11-02T17:22:29;11.10;99.90
59098;DHT22;44883;52.760;6.610;2022-11-02T17:25:29;11.10;99.90
59098;DHT22;44883;52.760;6.610;2022-11-02T17:27:46;11.10;99.90
59098;DHT22;44883;52.760;6.610;2022-11-02T17:32:56;11.00;99.90
59098;DHT22;44883;52.760;6.610;2022-11-02T17:35:22;11.00;99.90
59098;DHT22;44883;52.760;6.610;2022-11-02T17:37:48;11.00;99.90
59098;DHT22;44883;52.760;6.610;2022-11-02T17:40:13;10.90;99.90
59098;DHT22;44883;52.760;6.610;2022-11-02T17:42:39;10.90;99.90
59098;DHT22;44883;52.760;6.610;2022-11-02T17:45:26;10.90;99.90
59098;DHT22;44883;52.760;6.610;2022-11-02T17:47:53;10.90;99.90
59098;DHT22;44883;52.760;6.610;2022-11-02T17:50:18;10.90;99.90
59098;DHT22;44883;52.760;6.610;2022-11-02T17:52:44;10.90;99.90
59098;DHT22;44883;52.760;6.610;2022-11-02T17:55:12;10.90;99.90
59098;DHT22;44883;52.760;6.610;2022-11-02T17:57:38;10.90;99.90
59098;DHT22;44883;52.760;6.610;2022-11-02T18:00:03;10.90;99.90
59098;DHT22;44883;52.760;6.610;2022-11-02T18:02:29;10.90;99.90
59098;DHT22;44883;52.760;6.610;2022-11-02T18:04:55;10.90;99.90
59098;DHT22;44883;52.760;6.610;2022-11-02T18:07:21;10.90;99.90
59098;DHT22;44883;52.760;6.610;2022-11-02T18:09:46;10.90;99.90
59098;DHT22;44883;52.760;6.610;2022-11-02T18:12:12;10.90;99.90